Time,TemperatureF,DewpointF,PressureIn,WindDirection,WindDirectionDegrees,WindSpeedMPH,WindSpeedGustMPH,Humidity,HourlyPrecipIn,Conditions,Clouds,dailyrainin,SolarRadiationWatts/m^2,SoftwareType,DateUTC
2013-09-04 00:01:00,79.9,76.6,29.93,SE,128,0.0,2.0,90,0.00,,,0.00,0.0,meteohub,2013-09-04 04:01:00,
2013-09-04 00:02:00,79.9,76.6,29.93,SE,128,0.0,2.0,90,0.00,,,0.00,0.0,meteohub,2013-09-04 04:02:00,
2013-09-04 00:07:00,80.1,76.8,29.94,SE,128,0.0,1.0,90,0.00,,,0.00,0.0,meteohub,2013-09-04 04:07:00,
2013-09-04 00:12:00,80.1,76.8,29.93,SE,128,0.0,0.0,90,0.00,,,0.00,0.0,meteohub,2013-09-04 04:12:00,
2013-09-04 00:17:00,80.1,76.5,29.93,SE,129,0.0,0.0,89,0.00,,,0.00,0.0,meteohub,2013-09-04 04:17:00,
2013-09-04 00:22:00,80.1,76.5,29.93,SE,129,0.0,1.0,89,0.00,,,0.00,0.0,meteohub,2013-09-04 04:22:00,
2013-09-04 00:27:00,80.2,76.6,29.93,SE,129,0.0,1.0,89,0.00,,,0.00,0.0,meteohub,2013-09-04 04:27:00,
2013-09-04 00:32:00,80.2,76.6,29.93,SE,132,0.0,1.0,89,0.00,,,0.00,0.0,meteohub,2013-09-04 04:32:00,
2013-09-04 00:37:00,80.2,76.6,29.93,SE,129,0.0,1.0,89,0.00,,,0.00,0.0,meteohub,2013-09-04 04:37:00,
2013-09-04 00:42:00,80.2,76.6,29.92,SE,129,0.0,1.0,89,0.00,,,0.00,0.0,meteohub,2013-09-04 04:42:00,
2013-09-04 00:47:00,80.2,76.3,29.92,SE,129,0.0,1.0,88,0.00,,,0.00,0.0,meteohub,2013-09-04 04:47:00,
2013-09-04 00:52:00,80.1,76.5,29.92,SE,129,0.0,1.0,89,0.00,,,0.00,0.0,meteohub,2013-09-04 04:52:00,
2013-09-04 00:57:00,79.9,76.3,29.92,SW,232,0.0,1.0,89,0.00,,,0.00,0.0,meteohub,2013-09-04 04:57:00,
2013-09-04 01:02:00,79.9,76.3,29.92,SW,232,0.0,2.0,89,0.00,,,0.00,0.0,meteohub,2013-09-04 05:02:00,
2013-09-04 01:07:00,79.9,76.3,29.92,SW,232,0.0,2.0,89,0.00,,,0.00,0.0,meteohub,2013-09-04 05:07:00,
2013-09-04 01:12:00,79.5,76.3,29.92,SW,232,0.0,2.0,90,0.00,,,0.00,0.0,meteohub,2013-09-04 05:12:00,
2013-09-04 01:17:00,79.5,76.3,29.92,SW,232,0.0,1.0,90,0.00,,,0.00,0.0,meteohub,2013-09-04 05:17:00,
2013-09-04 01:22:00,79.3,76.1,29.92,SW,232,0.0,1.0,90,0.00,,,0.00,0.0,meteohub,2013-09-04 05:22:00,
2013-09-04 01:27:00,79.3,76.1,29.92,WSW,248,0.0,1.0,90,0.00,,,0.00,0.0,meteohub,2013-09-04 05:27:00,
2013-09-04 01:32:00,79.2,75.9,29.92,WSW,248,0.0,2.0,90,0.00,,,0.00,0.0,meteohub,2013-09-04 05:32:00,
2013-09-04 01:37:00,79.2,75.9,29.92,WSW,248,0.0,2.0,90,0.00,,,0.00,0.0,meteohub,2013-09-04 05:37:00,
2013-09-04 01:42:00,79.2,75.9,29.92,SSW,202,0.0,0.0,90,0.00,,,0.00,0.0,meteohub,2013-09-04 05:42:00,
2013-09-04 01:47:00,79.0,75.7,29.92,SSW,202,0.0,2.0,90,0.00,,,0.00,0.0,meteohub,2013-09-04 05:47:00,
2013-09-04 01:52:00,79.0,76.1,29.92,SSE,148,0.0,2.0,91,0.00,,,0.00,0.0,meteohub,2013-09-04 05:52:00,
2013-09-04 01:57:00,79.0,76.1,29.92,South,173,0.0,2.0,91,0.00,,,0.00,0.0,meteohub,2013-09-04 05:57:00,
2013-09-04 02:02:00,78.6,75.7,29.92,South,173,0.0,2.0,91,0.00,,,0.00,0.0,meteohub,2013-09-04 06:02:00,
2013-09-04 02:07:00,78.6,75.7,29.92,South,173,0.0,2.0,91,0.00,,,0.00,0.0,meteohub,2013-09-04 06:07:00,
2013-09-04 02:12:00,78.6,75.7,29.92,South,173,0.0,1.0,91,0.00,,,0.00,0.0,meteohub,2013-09-04 06:12:00,
2013-09-04 02:17:00,78.6,75.7,29.93,South,173,0.0,1.0,91,0.00,,,0.00,0.0,meteohub,2013-09-04 06:17:00,
2013-09-04 02:22:00,78.6,75.7,29.93,South,172,0.0,0.0,91,0.00,,,0.00,0.0,meteohub,2013-09-04 06:22:00,
2013-09-04 02:27:00,78.6,76.1,29.93,South,172,0.0,0.0,92,0.00,,,0.00,0.0,meteohub,2013-09-04 06:27:00,
2013-09-04 02:32:00,78.6,76.1,29.94,South,172,0.0,1.0,92,0.00,,,0.00,0.0,meteohub,2013-09-04 06:32:00,
2013-09-04 02:37:00,78.4,75.9,29.94,South,173,0.0,1.0,92,0.00,,,0.00,0.0,meteohub,2013-09-04 06:37:00,
2013-09-04 02:42:00,78.4,75.9,29.94,South,174,0.0,1.0,92,0.00,,,0.00,0.0,meteohub,2013-09-04 06:42:00,
2013-09-04 02:48:00,78.3,75.7,29.94,South,174,0.0,1.0,92,0.00,,,0.00,0.0,meteohub,2013-09-04 06:48:00,
2013-09-04 02:53:00,78.1,75.6,29.94,South,174,0.0,1.0,92,0.00,,,0.00,0.0,meteohub,2013-09-04 06:53:00,
2013-09-04 02:58:00,77.7,75.2,29.94,South,174,0.0,0.0,92,0.00,,,0.00,0.0,meteohub,2013-09-04 06:58:00,
2013-09-04 03:03:00,77.5,75.0,29.94,South,173,0.0,0.0,92,0.00,,,0.00,0.0,meteohub,2013-09-04 07:03:00,
2013-09-04 03:08:00,77.5,75.4,29.94,South,174,0.0,0.0,93,0.00,,,0.00,0.0,meteohub,2013-09-04 07:08:00,
2013-09-04 03:13:00,77.5,75.4,29.94,South,173,0.0,0.0,93,0.00,,,0.00,0.0,meteohub,2013-09-04 07:13:00,
2013-09-04 03:18:00,77.5,75.4,29.94,South,174,0.0,1.0,93,0.00,,,0.00,0.0,meteohub,2013-09-04 07:18:00,
2013-09-04 03:23:00,77.4,75.2,29.94,South,174,0.0,1.0,93,0.00,,,0.00,0.0,meteohub,2013-09-04 07:23:00,
2013-09-04 03:28:00,77.2,75.4,29.94,South,174,0.0,1.0,94,0.00,,,0.00,0.0,meteohub,2013-09-04 07:28:00,
2013-09-04 03:33:00,77.0,75.2,29.94,South,174,0.0,0.0,94,0.00,,,0.00,0.0,meteohub,2013-09-04 07:33:00,
2013-09-04 03:38:00,76.8,75.0,29.94,South,174,0.0,0.0,94,0.00,,,0.00,0.0,meteohub,2013-09-04 07:38:00,
2013-09-04 03:43:00,76.6,74.8,29.94,South,174,0.0,0.0,94,0.00,,,0.00,0.0,meteohub,2013-09-04 07:43:00,
2013-09-04 03:48:00,76.6,74.8,29.94,South,173,0.0,0.0,94,0.00,,,0.00,0.0,meteohub,2013-09-04 07:48:00,
2013-09-04 03:53:00,76.5,74.7,29.94,South,174,0.0,0.0,94,0.00,,,0.00,0.0,meteohub,2013-09-04 07:53:00,
2013-09-04 03:58:00,76.5,74.8,29.94,South,174,0.0,0.0,95,0.00,,,0.00,0.0,meteohub,2013-09-04 07:58:00,
2013-09-04 04:03:00,76.3,74.7,29.94,South,173,0.0,0.0,95,0.00,,,0.00,0.0,meteohub,2013-09-04 08:03:00,
2013-09-04 04:08:00,76.3,74.7,29.94,South,173,0.0,0.0,95,0.00,,,0.00,0.0,meteohub,2013-09-04 08:08:00,
2013-09-04 04:13:00,76.3,74.7,29.93,South,174,0.0,0.0,95,0.00,,,0.00,0.0,meteohub,2013-09-04 08:13:00,
2013-09-04 04:18:00,76.3,74.7,29.94,South,174,0.0,0.0,95,0.00,,,0.00,0.0,meteohub,2013-09-04 08:18:00,
2013-09-04 04:23:00,76.3,74.7,29.93,South,173,0.0,0.0,95,0.00,,,0.00,0.0,meteohub,2013-09-04 08:23:00,
2013-09-04 04:28:00,76.3,74.7,29.94,South,174,0.0,0.0,95,0.00,,,0.00,0.0,meteohub,2013-09-04 08:28:00,
2013-09-04 04:33:00,76.3,74.7,29.94,South,174,0.0,0.0,95,0.00,,,0.00,0.0,meteohub,2013-09-04 08:33:00,
2013-09-04 04:38:00,76.1,74.5,29.94,South,174,0.0,0.0,95,0.00,,,0.00,0.0,meteohub,2013-09-04 08:38:00,
2013-09-04 04:43:00,75.9,74.3,29.94,South,173,0.0,0.0,95,0.00,,,0.00,0.0,meteohub,2013-09-04 08:43:00,
2013-09-04 04:48:00,75.9,74.7,29.94,South,174,0.0,0.0,96,0.00,,,0.00,0.0,meteohub,2013-09-04 08:48:00,
2013-09-04 04:53:00,75.9,74.7,29.94,South,174,0.0,0.0,96,0.00,,,0.00,0.0,meteohub,2013-09-04 08:53:00,
2013-09-04 04:58:00,75.7,74.5,29.94,South,174,0.0,0.0,96,0.00,,,0.00,0.0,meteohub,2013-09-04 08:58:00,
2013-09-04 05:03:00,75.7,74.5,29.94,South,173,0.0,0.0,96,0.00,,,0.00,0.0,meteohub,2013-09-04 09:03:00,
2013-09-04 05:08:00,75.6,74.3,29.94,South,174,0.0,0.0,96,0.00,,,0.00,0.0,meteohub,2013-09-04 09:08:00,
2013-09-04 05:13:00,75.6,74.3,29.94,South,174,0.0,0.0,96,0.00,,,0.00,0.0,meteohub,2013-09-04 09:13:00,
2013-09-04 05:18:00,75.6,74.3,29.94,South,173,0.0,0.0,96,0.00,,,0.00,0.0,meteohub,2013-09-04 09:18:00,
2013-09-04 05:23:00,75.6,74.3,29.94,South,174,0.0,0.0,96,0.00,,,0.00,0.0,meteohub,2013-09-04 09:23:00,
2013-09-04 05:28:00,75.6,74.3,29.94,South,174,0.0,0.0,96,0.00,,,0.00,0.0,meteohub,2013-09-04 09:28:00,
2013-09-04 05:33:00,75.6,74.3,29.94,South,174,0.0,0.0,96,0.00,,,0.00,0.0,meteohub,2013-09-04 09:33:00,
2013-09-04 05:38:00,75.6,74.3,29.94,South,173,0.0,0.0,96,0.00,,,0.00,0.0,meteohub,2013-09-04 09:38:00,
2013-09-04 05:43:00,75.6,74.3,29.94,South,174,0.0,0.0,96,0.00,,,0.00,0.0,meteohub,2013-09-04 09:43:00,
2013-09-04 05:48:00,75.4,74.1,29.94,South,174,0.0,0.0,96,0.00,,,0.00,0.0,meteohub,2013-09-04 09:48:00,
2013-09-04 05:53:00,75.4,74.1,29.95,South,173,0.0,0.0,96,0.00,,,0.00,0.0,meteohub,2013-09-04 09:53:00,
2013-09-04 05:58:00,75.4,74.1,29.95,South,174,0.0,0.0,96,0.00,,,0.00,0.0,meteohub,2013-09-04 09:58:00,
2013-09-04 06:03:00,75.4,74.1,29.95,South,173,0.0,0.0,96,0.00,,,0.00,0.0,meteohub,2013-09-04 10:03:00,
2013-09-04 06:08:00,75.4,74.1,29.95,South,173,0.0,0.0,96,0.00,,,0.00,0.0,meteohub,2013-09-04 10:08:00,
2013-09-04 06:13:00,75.4,74.1,29.95,South,174,0.0,0.0,96,0.00,,,0.00,0.0,meteohub,2013-09-04 10:13:00,
2013-09-04 06:18:00,75.2,73.9,29.95,South,173,0.0,0.0,96,0.00,,,0.00,0.0,meteohub,2013-09-04 10:18:00,
2013-09-04 06:23:00,75.1,74.0,29.95,South,174,0.0,-999.0,96,-99.99,,,0.00,0,weatherlink.com 1.10,2013-09-04 10:23:00,
2013-09-04 06:29:00,75.0,73.8,29.96,South,173,0.0,0.0,96,0.00,,,0.00,0.0,meteohub,2013-09-04 10:29:00,
2013-09-04 06:34:00,75.0,73.8,29.96,South,173,0.0,0.0,96,0.00,,,0.00,0.0,meteohub,2013-09-04 10:34:00,
2013-09-04 06:39:00,75.0,74.1,29.96,South,173,0.0,0.0,97,0.00,,,0.00,0.0,meteohub,2013-09-04 10:39:00,
2013-09-04 06:44:00,75.0,74.1,29.96,South,173,0.0,0.0,97,0.00,,,0.00,0.0,meteohub,2013-09-04 10:44:00,
2013-09-04 06:49:00,75.0,74.1,29.96,South,173,0.0,0.0,97,0.00,,,0.00,0.0,meteohub,2013-09-04 10:49:00,
2013-09-04 06:54:00,75.0,74.1,29.96,South,174,0.0,0.0,97,0.00,,,0.00,0.0,meteohub,2013-09-04 10:54:00,
2013-09-04 06:59:00,74.8,73.6,29.96,South,174,0.0,0.0,96,0.00,,,0.00,0.0,meteohub,2013-09-04 10:59:00,
2013-09-04 07:04:00,74.8,73.6,29.96,South,173,0.0,0.0,96,0.00,,,0.00,0.0,meteohub,2013-09-04 11:04:00,
2013-09-04 07:09:00,74.8,73.6,29.96,South,174,0.0,0.0,96,0.00,,,0.00,0.0,meteohub,2013-09-04 11:09:00,
2013-09-04 07:14:00,74.8,73.9,29.96,South,173,0.0,0.0,97,0.00,,,0.00,5.0,meteohub,2013-09-04 11:14:00,
2013-09-04 07:19:00,74.8,73.9,29.96,South,174,0.0,0.0,97,0.00,,,0.00,12.0,meteohub,2013-09-04 11:19:00,
2013-09-04 07:24:00,74.8,73.9,29.97,South,174,0.0,0.0,97,0.00,,,0.00,19.0,meteohub,2013-09-04 11:24:00,
2013-09-04 07:29:00,74.8,73.9,29.97,South,174,0.0,0.0,97,0.00,,,0.00,25.0,meteohub,2013-09-04 11:29:00,
2013-09-04 07:34:00,74.8,73.9,29.97,South,174,0.0,0.0,97,0.00,,,0.00,44.0,meteohub,2013-09-04 11:34:00,
2013-09-04 07:39:00,75.2,74.3,29.97,South,173,0.0,0.0,97,0.00,,,0.00,54.0,meteohub,2013-09-04 11:39:00,
2013-09-04 07:44:00,75.4,74.5,29.98,South,173,0.0,0.0,97,0.00,,,0.00,69.0,meteohub,2013-09-04 11:44:00,
2013-09-04 07:49:00,75.6,74.7,29.98,South,174,0.0,0.0,97,0.00,,,0.00,86.0,meteohub,2013-09-04 11:49:00,
2013-09-04 07:54:00,75.9,75.0,29.98,South,174,0.0,0.0,97,0.00,,,0.00,97.0,meteohub,2013-09-04 11:54:00,
2013-09-04 07:59:00,76.3,75.4,29.98,South,174,0.0,0.0,97,0.00,,,0.00,113.0,meteohub,2013-09-04 11:59:00,
2013-09-04 08:04:00,76.5,75.6,29.99,South,173,0.0,0.0,97,0.00,,,0.00,127.0,meteohub,2013-09-04 12:04:00,
2013-09-04 08:09:00,76.8,75.6,29.98,South,173,0.0,0.0,96,0.00,,,0.00,142.0,meteohub,2013-09-04 12:09:00,
2013-09-04 08:14:00,77.4,76.1,29.98,South,174,0.0,0.0,96,0.00,,,0.00,158.0,meteohub,2013-09-04 12:14:00,
2013-09-04 08:19:00,77.7,76.1,29.99,South,174,0.0,1.0,95,0.00,,,0.00,174.0,meteohub,2013-09-04 12:19:00,
2013-09-04 08:24:00,78.4,76.6,29.99,South,174,0.0,1.0,94,0.00,,,0.00,193.0,meteohub,2013-09-04 12:24:00,
2013-09-04 08:29:00,79.2,77.0,29.99,South,174,0.0,1.0,93,0.00,,,0.00,211.0,meteohub,2013-09-04 12:29:00,
2013-09-04 08:34:00,79.9,77.0,29.99,South,174,0.0,1.0,91,0.00,,,0.00,229.0,meteohub,2013-09-04 12:34:00,
2013-09-04 08:39:00,80.6,77.0,29.99,South,174,0.0,0.0,89,0.00,,,0.00,248.0,meteohub,2013-09-04 12:39:00,
2013-09-04 08:44:00,80.8,76.8,29.99,South,174,0.0,0.0,88,0.00,,,0.00,265.0,meteohub,2013-09-04 12:44:00,
2013-09-04 08:49:00,81.0,76.6,29.99,SSW,202,0.0,1.0,87,0.00,,,0.00,285.0,meteohub,2013-09-04 12:49:00,
2013-09-04 08:54:00,81.0,76.5,29.99,SSW,202,0.0,1.0,86,0.00,,,0.00,301.0,meteohub,2013-09-04 12:54:00,
2013-09-04 08:59:00,81.5,76.8,29.99,SSW,202,0.0,1.0,86,0.00,,,0.00,320.0,meteohub,2013-09-04 12:59:00,
2013-09-04 09:04:00,82.0,76.6,29.99,SSW,202,0.0,1.0,84,0.00,,,0.00,339.0,meteohub,2013-09-04 13:04:00,
2013-09-04 09:09:00,82.2,76.5,29.99,SSW,211,0.0,0.0,83,0.00,,,0.00,355.0,meteohub,2013-09-04 13:09:00,
2013-09-04 09:14:00,82.8,76.6,29.99,SSW,212,0.0,1.0,82,0.00,,,0.00,373.0,meteohub,2013-09-04 13:14:00,
2013-09-04 09:19:00,82.9,76.8,30.00,SSW,211,0.0,1.0,82,0.00,,,0.00,392.0,meteohub,2013-09-04 13:19:00,
2013-09-04 09:24:00,83.3,76.5,30.00,West,269,0.0,1.0,80,0.00,,,0.00,410.0,meteohub,2013-09-04 13:24:00,
2013-09-04 09:29:00,83.3,76.8,30.00,West,269,0.0,1.0,81,0.00,,,0.00,427.0,meteohub,2013-09-04 13:29:00,
2013-09-04 09:34:00,83.1,76.6,30.00,West,281,0.0,1.0,81,0.00,,,0.00,448.0,meteohub,2013-09-04 13:34:00,
2013-09-04 09:39:00,83.5,77.0,30.00,WNW,282,0.0,4.0,81,0.00,,,0.00,462.0,meteohub,2013-09-04 13:39:00,
2013-09-04 09:44:00,83.7,76.8,30.00,WNW,294,2.0,4.0,80,0.00,,,0.00,478.0,meteohub,2013-09-04 13:44:00,
2013-09-04 09:49:00,84.0,77.5,30.00,WNW,283,0.0,4.0,81,0.00,,,0.00,499.0,meteohub,2013-09-04 13:49:00,
2013-09-04 09:55:00,83.8,76.6,30.00,WNW,297,0.0,4.0,79,0.00,,,0.00,517.0,meteohub,2013-09-04 13:55:00,
2013-09-04 10:00:00,84.0,76.5,30.00,WNW,301,0.0,4.0,78,0.00,,,0.00,533.0,meteohub,2013-09-04 14:00:00,
2013-09-04 10:05:00,84.4,75.6,30.00,NW,310,0.0,4.0,75,0.00,,,0.00,547.0,meteohub,2013-09-04 14:05:00,
2013-09-04 10:10:00,84.9,76.5,30.00,NW,304,2.0,4.0,76,0.00,,,0.00,566.0,meteohub,2013-09-04 14:10:00,
2013-09-04 10:15:00,85.1,76.6,30.00,NW,325,0.0,3.0,76,0.00,,,0.00,582.0,meteohub,2013-09-04 14:15:00,
2013-09-04 10:20:00,85.6,77.5,30.01,NW,325,0.0,3.0,77,0.00,,,0.00,594.0,meteohub,2013-09-04 14:20:00,
2013-09-04 10:25:00,86.2,76.1,30.01,NNW,330,0.0,3.0,72,0.00,,,0.00,608.0,meteohub,2013-09-04 14:25:00,
2013-09-04 10:30:00,86.5,77.2,30.01,NW,322,0.0,2.0,74,0.00,,,0.00,626.0,meteohub,2013-09-04 14:30:00,
2013-09-04 10:35:00,86.7,76.6,30.01,WNW,298,0.0,4.0,72,0.00,,,0.00,642.0,meteohub,2013-09-04 14:35:00,
2013-09-04 10:40:00,86.7,77.0,30.01,WNW,292,0.0,4.0,73,0.00,,,0.00,654.0,meteohub,2013-09-04 14:40:00,
2013-09-04 10:45:00,86.7,75.7,30.01,WNW,292,0.0,3.0,70,0.00,,,0.00,670.0,meteohub,2013-09-04 14:45:00,
2013-09-04 10:50:00,87.4,77.7,30.01,WNW,292,0.0,3.0,73,0.00,,,0.00,680.0,meteohub,2013-09-04 14:50:00,
2013-09-04 10:55:00,88.2,76.3,30.01,SSW,198,0.0,1.0,68,0.00,,,0.00,696.0,meteohub,2013-09-04 14:55:00,
2013-09-04 11:00:00,88.5,76.6,30.01,West,273,0.0,1.0,68,0.00,,,0.00,708.0,meteohub,2013-09-04 15:00:00,
2013-09-04 11:05:00,88.9,76.5,30.01,SW,234,0.0,2.0,67,0.00,,,0.00,722.0,meteohub,2013-09-04 15:05:00,
2013-09-04 11:10:00,88.9,77.0,30.01,SW,234,1.0,2.0,68,0.00,,,0.00,733.0,meteohub,2013-09-04 15:10:00,
2013-09-04 11:15:00,89.1,76.6,30.01,WNW,296,0.0,2.0,67,0.00,,,0.00,745.0,meteohub,2013-09-04 15:15:00,
2013-09-04 11:20:00,88.9,77.9,30.01,WNW,297,0.0,6.0,70,0.00,,,0.00,756.0,meteohub,2013-09-04 15:20:00,
2013-09-04 11:25:00,88.9,77.0,30.01,NW,308,4.0,6.0,68,0.00,,,0.00,765.0,meteohub,2013-09-04 15:25:00,
2013-09-04 11:30:00,88.9,77.9,30.01,WNW,303,0.0,4.0,70,0.00,,,0.00,775.0,meteohub,2013-09-04 15:30:00,
2013-09-04 11:35:00,89.2,76.5,30.01,West,280,0.0,4.0,66,0.00,,,0.00,788.0,meteohub,2013-09-04 15:35:00,
2013-09-04 11:40:00,89.8,76.8,30.01,WNW,289,5.0,5.0,66,0.00,,,0.00,796.0,meteohub,2013-09-04 15:40:00,
2013-09-04 11:45:00,89.6,77.2,30.01,WSW,240,0.0,5.0,67,0.00,,,0.00,805.0,meteohub,2013-09-04 15:45:00,
2013-09-04 11:50:00,89.4,77.0,30.01,WNW,283,0.0,5.0,67,0.00,,,0.00,814.0,meteohub,2013-09-04 15:50:00,
2013-09-04 11:55:00,89.6,78.4,30.01,NW,310,0.0,5.0,70,0.00,,,0.00,821.0,meteohub,2013-09-04 15:55:00,
2013-09-04 12:00:00,89.4,77.5,30.01,WNW,283,0.0,5.0,68,0.00,,,0.00,830.0,meteohub,2013-09-04 16:00:00,
2013-09-04 12:06:00,90.0,77.5,30.01,WNW,284,1.0,5.0,67,0.00,,,0.00,842.0,meteohub,2013-09-04 16:06:00,
2013-09-04 12:11:00,90.1,77.7,30.01,WSW,255,0.0,5.0,67,0.00,,,0.00,846.0,meteohub,2013-09-04 16:11:00,
2013-09-04 12:16:00,90.3,77.4,30.01,West,275,0.0,5.0,66,0.00,,,0.00,861.0,meteohub,2013-09-04 16:16:00,
2013-09-04 12:21:00,90.7,77.7,30.01,SE,135,0.0,5.0,66,0.00,,,0.00,886.0,meteohub,2013-09-04 16:21:00,
2013-09-04 12:26:00,90.7,77.7,30.01,ESE,111,0.0,4.0,66,0.00,,,0.00,942.0,meteohub,2013-09-04 16:26:00,
2013-09-04 12:31:00,90.5,78.1,30.01,West,272,0.0,7.0,67,0.00,,,0.00,225.0,meteohub,2013-09-04 16:31:00,
2013-09-04 12:36:00,90.3,78.3,30.01,West,273,0.0,7.0,68,0.00,,,0.00,949.0,meteohub,2013-09-04 16:36:00,
2013-09-04 12:41:00,90.7,78.3,30.01,West,272,0.0,7.0,67,0.00,,,0.00,937.0,meteohub,2013-09-04 16:41:00,
2013-09-04 12:46:00,90.9,77.5,30.01,WNW,292,5.0,6.0,65,0.00,,,0.00,940.0,meteohub,2013-09-04 16:46:00,
2013-09-04 12:51:00,90.5,75.7,30.00,WNW,299,1.0,6.0,62,0.00,,,0.00,909.0,meteohub,2013-09-04 16:51:00,
2013-09-04 12:56:00,90.3,77.9,30.00,WNW,284,2.0,6.0,67,0.00,,,0.00,958.0,meteohub,2013-09-04 16:56:00,
2013-09-04 13:01:00,90.5,77.2,30.00,South,175,1.0,5.0,65,0.00,,,0.00,956.0,meteohub,2013-09-04 17:01:00,
2013-09-04 13:06:00,91.2,78.8,30.00,South,175,1.0,5.0,67,0.00,,,0.00,986.0,meteohub,2013-09-04 17:06:00,
2013-09-04 13:11:00,91.9,79.0,30.00,SE,138,0.0,4.0,66,0.00,,,0.00,967.0,meteohub,2013-09-04 17:11:00,
2013-09-04 13:16:00,92.5,77.0,30.00,SE,137,0.0,4.0,61,0.00,,,0.00,962.0,meteohub,2013-09-04 17:16:00,
2013-09-04 13:21:00,92.7,77.2,30.00,South,184,0.0,4.0,61,0.00,,,0.00,958.0,meteohub,2013-09-04 17:21:00,
2013-09-04 13:26:00,92.8,77.4,30.00,South,178,2.0,6.0,61,0.00,,,0.00,965.0,meteohub,2013-09-04 17:26:00,
2013-09-04 13:31:00,92.7,77.2,30.00,WNW,284,0.0,6.0,61,0.00,,,0.00,998.0,meteohub,2013-09-04 17:31:00,
2013-09-04 13:36:00,92.8,76.5,30.00,SSE,161,0.0,4.0,59,0.00,,,0.00,1014.0,meteohub,2013-09-04 17:36:00,
2013-09-04 13:41:00,93.0,77.0,30.00,ESE,105,0.0,4.0,60,0.00,,,0.00,1009.0,meteohub,2013-09-04 17:41:00,
2013-09-04 13:46:00,93.4,76.5,30.00,SSE,165,0.0,6.0,58,0.00,,,0.00,993.0,meteohub,2013-09-04 17:46:00,
2013-09-04 13:51:00,93.6,78.1,30.00,South,182,0.0,6.0,61,0.00,,,0.00,956.0,meteohub,2013-09-04 17:51:00,
2013-09-04 13:56:00,93.6,78.6,30.00,SE,126,0.0,6.0,62,0.00,,,0.00,974.0,meteohub,2013-09-04 17:56:00,
2013-09-04 14:01:00,93.6,79.5,29.99,SSE,157,1.0,4.0,64,0.00,,,0.00,986.0,meteohub,2013-09-04 18:01:00,
2013-09-04 14:06:00,93.7,77.7,29.99,NE,55,2.0,3.0,60,0.00,,,0.00,988.0,meteohub,2013-09-04 18:06:00,
2013-09-04 14:11:00,93.0,78.6,29.99,East,86,1.0,3.0,63,0.00,,,0.00,970.0,meteohub,2013-09-04 18:11:00,
2013-09-04 14:16:00,93.0,78.1,29.99,SSE,168,2.0,3.0,62,0.00,,,0.00,942.0,meteohub,2013-09-04 18:16:00,
2013-09-04 14:21:00,93.2,77.2,29.99,SE,130,0.0,3.0,60,0.00,,,0.00,969.0,meteohub,2013-09-04 18:21:00,
2013-09-04 14:26:00,93.4,77.4,29.99,SE,131,0.0,3.0,60,0.00,,,0.00,446.0,meteohub,2013-09-04 18:26:00,
2013-09-04 14:31:00,92.8,77.9,29.99,SW,218,0.0,3.0,62,0.00,,,0.00,253.0,meteohub,2013-09-04 18:31:00,
2013-09-04 14:36:00,92.3,78.3,29.99,SSW,199,0.0,3.0,64,0.00,,,0.00,297.0,meteohub,2013-09-04 18:36:00,
2013-09-04 14:41:00,91.9,77.0,29.99,ESE,114,0.0,3.0,62,0.00,,,0.00,1020.0,meteohub,2013-09-04 18:41:00,
2013-09-04 14:46:00,92.5,78.4,29.99,SSW,211,7.0,7.0,64,0.00,,,0.00,1018.0,meteohub,2013-09-04 18:46:00,
2013-09-04 14:51:00,92.8,78.8,29.99,ESE,109,0.0,7.0,64,0.00,,,0.00,997.0,meteohub,2013-09-04 18:51:00,
2013-09-04 14:57:00,92.8,79.3,29.99,SSE,150,1.0,7.0,65,0.00,,,0.00,967.0,meteohub,2013-09-04 18:57:00,
2013-09-04 15:02:00,92.1,79.2,29.99,SE,129,1.0,7.0,66,0.00,,,0.00,274.0,meteohub,2013-09-04 19:02:00,
2013-09-04 15:07:00,90.9,78.8,29.98,SSE,164,1.0,5.0,68,0.00,,,0.00,192.0,meteohub,2013-09-04 19:07:00,
2013-09-04 15:12:00,89.8,78.6,29.98,SE,136,3.0,7.0,70,0.00,,,0.00,190.0,meteohub,2013-09-04 19:12:00,
2013-09-04 15:17:00,89.1,78.4,29.98,SSW,209,0.0,7.0,71,0.00,,,0.00,258.0,meteohub,2013-09-04 19:17:00,
2013-09-04 15:22:00,88.9,78.3,29.98,South,173,4.0,5.0,71,0.00,,,0.00,253.0,meteohub,2013-09-04 19:22:00,
2013-09-04 15:27:00,88.5,77.9,29.98,SE,146,0.0,6.0,71,0.00,,,0.00,165.0,meteohub,2013-09-04 19:27:00,
2013-09-04 15:32:00,88.2,77.9,29.98,SE,126,3.0,7.0,72,0.00,,,0.00,153.0,meteohub,2013-09-04 19:32:00,
2013-09-04 15:37:00,87.4,78.1,29.98,ESE,106,0.0,8.0,74,0.00,,,0.00,116.0,meteohub,2013-09-04 19:37:00,
2013-09-04 15:42:00,86.4,76.3,29.98,ESE,118,3.0,8.0,72,0.00,,,0.00,118.0,meteohub,2013-09-04 19:42:00,
2013-09-04 15:47:00,85.6,75.9,29.98,East,89,0.0,7.0,73,0.00,,,0.00,116.0,meteohub,2013-09-04 19:47:00,
2013-09-04 15:52:00,84.9,76.1,29.98,ENE,74,2.0,7.0,75,0.00,,,0.00,132.0,meteohub,2013-09-04 19:52:00,
2013-09-04 15:57:00,83.7,75.7,29.97,NE,40,0.0,4.0,77,0.01,,,0.01,218.0,meteohub,2013-09-04 19:57:00,
2013-09-04 16:02:00,82.8,75.6,29.97,East,86,0.0,4.0,79,0.01,,,0.01,153.0,meteohub,2013-09-04 20:02:00,
2013-09-04 16:07:00,82.2,75.0,29.97,NE,55,0.0,4.0,79,0.01,,,0.01,193.0,meteohub,2013-09-04 20:07:00,
2013-09-04 16:12:00,81.9,73.9,29.97,NE,52,2.0,3.0,77,0.01,,,0.01,315.0,meteohub,2013-09-04 20:12:00,
2013-09-04 16:17:00,81.7,73.4,29.97,NNE,24,0.0,6.0,76,0.01,,,0.01,86.0,meteohub,2013-09-04 20:17:00,
2013-09-04 16:22:00,81.3,74.5,29.98,North,9,0.0,6.0,80,0.01,,,0.01,46.0,meteohub,2013-09-04 20:22:00,
2013-09-04 16:27:00,80.2,74.7,29.98,NE,54,2.0,6.0,83,0.01,,,0.01,35.0,meteohub,2013-09-04 20:27:00,
2013-09-04 16:32:00,79.0,75.2,29.99,NNE,22,0.0,4.0,88,0.04,,,0.04,32.0,meteohub,2013-09-04 20:32:00,
2013-09-04 16:37:00,78.4,75.2,29.99,NNE,21,0.0,4.0,90,0.06,,,0.06,28.0,meteohub,2013-09-04 20:37:00,
2013-09-04 16:42:00,78.1,75.2,29.98,NNE,21,0.0,4.0,91,0.07,,,0.07,28.0,meteohub,2013-09-04 20:42:00,
2013-09-04 16:47:00,78.3,76.1,29.98,WNW,296,2.0,2.0,93,0.08,,,0.08,28.0,meteohub,2013-09-04 20:47:00,
2013-09-04 16:52:00,78.3,76.5,29.97,WNW,296,0.0,3.0,94,0.09,,,0.10,32.0,meteohub,2013-09-04 20:52:00,
2013-09-04 16:57:00,78.4,76.8,29.98,WNW,295,0.0,3.0,95,0.10,,,0.11,33.0,meteohub,2013-09-04 20:57:00,
2013-09-04 17:02:00,78.3,76.6,29.98,WNW,296,0.0,3.0,95,0.13,,,0.14,35.0,meteohub,2013-09-04 21:02:00,
2013-09-04 17:07:00,78.3,76.5,29.99,WNW,296,0.0,1.0,94,0.15,,,0.16,33.0,meteohub,2013-09-04 21:07:00,
2013-09-04 17:12:00,78.1,76.3,29.98,NNW,338,0.0,1.0,94,0.17,,,0.18,32.0,meteohub,2013-09-04 21:12:00,
2013-09-04 17:17:00,78.3,76.6,29.98,NNW,338,0.0,1.0,95,0.18,,,0.19,33.0,meteohub,2013-09-04 21:17:00,
2013-09-04 17:22:00,78.3,76.6,29.98,NNW,338,0.0,1.0,95,0.19,,,0.20,32.0,meteohub,2013-09-04 21:22:00,
2013-09-04 17:27:00,78.3,76.6,29.98,NNW,335,0.0,1.0,95,0.19,,,0.21,33.0,meteohub,2013-09-04 21:27:00,
2013-09-04 17:32:00,78.3,76.6,29.98,NNW,335,0.0,1.0,95,0.16,,,0.21,33.0,meteohub,2013-09-04 21:32:00,
2013-09-04 17:37:00,78.3,76.6,29.98,NNW,334,0.0,1.0,95,0.15,,,0.21,37.0,meteohub,2013-09-04 21:37:00,
2013-09-04 17:42:00,78.1,76.5,29.99,NNW,335,0.0,0.0,95,0.14,,,0.21,40.0,meteohub,2013-09-04 21:42:00,
2013-09-04 17:47:00,77.9,76.3,29.99,NNW,334,0.0,0.0,95,0.13,,,0.21,44.0,meteohub,2013-09-04 21:47:00,
2013-09-04 17:52:00,77.5,75.9,29.99,NNW,334,0.0,1.0,95,0.11,,,0.21,44.0,meteohub,2013-09-04 21:52:00,
2013-09-04 17:57:00,77.7,76.1,29.99,NNW,335,0.0,1.0,95,0.08,,,0.21,47.0,meteohub,2013-09-04 21:57:00,
2013-09-04 18:02:00,77.7,76.1,29.99,NNW,335,0.0,1.0,95,0.06,,,0.21,54.0,meteohub,2013-09-04 22:02:00,
2013-09-04 18:07:00,77.7,76.5,29.99,NNW,334,0.0,1.0,96,0.04,,,0.21,63.0,meteohub,2013-09-04 22:07:00,
2013-09-04 18:12:00,77.7,76.5,29.99,NNW,335,0.0,0.0,96,0.03,,,0.21,70.0,meteohub,2013-09-04 22:12:00,
2013-09-04 18:17:00,78.1,76.8,29.99,NNW,335,0.0,0.0,96,0.01,,,0.21,74.0,meteohub,2013-09-04 22:17:00,
2013-09-04 18:22:00,78.1,76.8,29.98,NNW,335,0.0,1.0,96,0.00,,,0.21,76.0,meteohub,2013-09-04 22:22:00,
2013-09-04 18:27:00,78.1,76.8,29.98,West,261,0.0,1.0,96,0.00,,,0.21,74.0,meteohub,2013-09-04 22:27:00,
2013-09-04 18:32:00,78.3,77.0,29.98,West,261,0.0,0.0,96,0.00,,,0.21,74.0,meteohub,2013-09-04 22:32:00,
2013-09-04 18:37:00,78.4,77.2,29.97,West,263,0.0,0.0,96,0.00,,,0.21,74.0,meteohub,2013-09-04 22:37:00,
2013-09-04 18:42:00,78.6,77.4,29.96,West,263,0.0,0.0,96,0.00,,,0.21,76.0,meteohub,2013-09-04 22:42:00,
2013-09-04 18:47:00,78.6,77.4,29.96,West,263,0.0,0.0,96,0.00,,,0.21,79.0,meteohub,2013-09-04 22:47:00,
2013-09-04 18:52:00,79.2,77.9,29.96,West,263,0.0,1.0,96,0.00,,,0.21,79.0,meteohub,2013-09-04 22:52:00,
2013-09-04 18:57:00,79.3,78.1,29.96,West,263,0.0,1.0,96,0.00,,,0.21,77.0,meteohub,2013-09-04 22:57:00,
2013-09-04 19:02:00,79.3,78.1,29.96,West,263,0.0,1.0,96,0.00,,,0.21,72.0,meteohub,2013-09-04 23:02:00,
2013-09-04 19:07:00,79.3,78.1,29.97,West,263,0.0,1.0,96,0.00,,,0.21,63.0,meteohub,2013-09-04 23:07:00,
2013-09-04 19:12:00,79.3,77.7,29.97,West,263,0.0,1.0,95,0.00,,,0.21,54.0,meteohub,2013-09-04 23:12:00,
2013-09-04 19:17:00,79.3,77.7,29.97,West,263,0.0,1.0,95,0.00,,,0.21,44.0,meteohub,2013-09-04 23:17:00,
2013-09-04 19:22:00,79.2,77.5,29.97,West,263,0.0,1.0,95,0.00,,,0.21,35.0,meteohub,2013-09-04 23:22:00,
2013-09-04 19:27:00,79.2,77.5,29.98,West,263,0.0,1.0,95,0.00,,,0.21,26.0,meteohub,2013-09-04 23:27:00,
2013-09-04 19:32:00,79.2,77.5,29.97,West,263,0.0,1.0,95,0.00,,,0.21,18.0,meteohub,2013-09-04 23:32:00,
2013-09-04 19:37:00,79.0,77.4,29.97,West,263,0.0,0.0,95,0.00,,,0.21,12.0,meteohub,2013-09-04 23:37:00,
2013-09-04 19:42:00,79.0,77.4,29.97,West,263,0.0,0.0,95,0.00,,,0.21,5.0,meteohub,2013-09-04 23:42:00,
2013-09-04 19:47:00,78.6,76.8,29.98,West,263,0.0,0.0,94,0.00,,,0.21,0.0,meteohub,2013-09-04 23:47:00,
2013-09-04 19:52:00,78.6,76.8,29.99,West,263,0.0,0.0,94,0.00,,,0.21,0.0,meteohub,2013-09-04 23:52:00,
2013-09-04 19:57:00,78.4,76.6,29.99,West,263,0.0,0.0,94,0.00,,,0.21,0.0,meteohub,2013-09-04 23:57:00,
2013-09-04 20:02:00,78.3,76.6,29.99,West,263,0.0,0.0,95,0.00,,,0.21,0.0,meteohub,2013-09-05 00:02:00,
2013-09-04 20:07:00,78.3,76.6,29.99,West,263,0.0,0.0,95,0.00,,,0.21,0.0,meteohub,2013-09-05 00:07:00,
2013-09-04 20:12:00,78.1,76.5,29.99,West,263,0.0,0.0,95,0.00,,,0.21,0.0,meteohub,2013-09-05 00:12:00,
2013-09-04 20:17:00,77.7,76.1,30.00,West,263,0.0,1.0,95,0.00,,,0.21,0.0,meteohub,2013-09-05 00:17:00,
2013-09-04 20:22:00,77.7,76.1,30.00,West,263,0.0,1.0,95,0.00,,,0.21,0.0,meteohub,2013-09-05 00:22:00,
2013-09-04 20:27:00,77.5,76.3,30.00,West,263,0.0,1.0,96,0.00,,,0.21,0.0,meteohub,2013-09-05 00:27:00,
2013-09-04 20:32:00,77.5,76.3,30.00,West,263,0.0,0.0,96,0.00,,,0.21,0.0,meteohub,2013-09-05 00:32:00,
2013-09-04 20:37:00,77.5,76.3,30.00,West,263,0.0,0.0,96,0.00,,,0.21,0.0,meteohub,2013-09-05 00:37:00,
2013-09-04 20:42:00,77.5,76.3,30.00,West,263,0.0,0.0,96,0.00,,,0.21,0.0,meteohub,2013-09-05 00:42:00,
2013-09-04 20:47:00,77.5,76.3,30.01,West,263,0.0,0.0,96,0.00,,,0.21,0.0,meteohub,2013-09-05 00:47:00,
2013-09-04 20:52:00,77.5,76.3,30.01,West,263,0.0,0.0,96,0.00,,,0.21,0.0,meteohub,2013-09-05 00:52:00,
2013-09-04 20:57:00,77.5,76.3,30.01,West,263,0.0,0.0,96,0.00,,,0.21,0.0,meteohub,2013-09-05 00:57:00,
2013-09-04 21:02:00,77.5,76.3,30.01,West,263,0.0,0.0,96,0.00,,,0.21,0.0,meteohub,2013-09-05 01:02:00,
2013-09-04 21:07:00,77.7,76.5,30.01,West,263,0.0,2.0,96,0.00,,,0.21,0.0,meteohub,2013-09-05 01:07:00,
2013-09-04 21:12:00,77.7,76.5,30.01,West,263,0.0,2.0,96,0.00,,,0.21,0.0,meteohub,2013-09-05 01:12:00,
2013-09-04 21:17:00,77.7,76.5,30.02,West,263,0.0,1.0,96,0.00,,,0.21,0.0,meteohub,2013-09-05 01:17:00,
2013-09-04 21:22:00,77.7,76.5,30.02,West,263,0.0,0.0,96,0.00,,,0.21,0.0,meteohub,2013-09-05 01:22:00,
2013-09-04 21:27:00,77.9,76.6,30.02,West,263,0.0,0.0,96,0.00,,,0.21,0.0,meteohub,2013-09-05 01:27:00,
2013-09-04 21:32:00,77.9,76.6,30.03,West,263,0.0,0.0,96,0.00,,,0.21,0.0,meteohub,2013-09-05 01:32:00,
2013-09-04 21:37:00,77.9,76.6,30.02,West,263,0.0,0.0,96,0.00,,,0.21,0.0,meteohub,2013-09-05 01:37:00,
2013-09-04 21:42:00,77.9,76.6,30.03,West,263,0.0,0.0,96,0.00,,,0.21,0.0,meteohub,2013-09-05 01:42:00,
2013-09-04 21:47:00,77.9,76.6,30.03,West,263,0.0,0.0,96,0.00,,,0.21,0.0,meteohub,2013-09-05 01:47:00,
2013-09-04 21:52:00,77.7,76.5,30.03,West,263,0.0,0.0,96,0.00,,,0.21,0.0,meteohub,2013-09-05 01:52:00,
2013-09-04 21:57:00,77.7,76.5,30.03,West,263,0.0,0.0,96,0.00,,,0.21,0.0,meteohub,2013-09-05 01:57:00,
2013-09-04 22:02:00,77.9,77.0,30.03,West,263,0.0,1.0,97,0.00,,,0.21,0.0,meteohub,2013-09-05 02:02:00,
2013-09-04 22:07:00,78.1,77.2,30.03,West,263,0.0,1.0,97,0.00,,,0.21,0.0,meteohub,2013-09-05 02:07:00,
2013-09-04 22:12:00,78.1,77.2,30.03,West,263,0.0,1.0,97,0.00,,,0.21,0.0,meteohub,2013-09-05 02:12:00,
2013-09-04 22:17:00,78.3,77.4,30.03,West,263,0.0,1.0,97,0.00,,,0.21,0.0,meteohub,2013-09-05 02:17:00,
2013-09-04 22:22:00,78.1,76.8,30.03,SE,142,0.0,1.0,96,0.00,,,0.21,0.0,meteohub,2013-09-05 02:22:00,
2013-09-04 22:27:00,78.1,76.5,30.03,SE,141,0.0,1.0,95,0.00,,,0.21,0.0,meteohub,2013-09-05 02:27:00,
2013-09-04 22:32:00,77.9,76.3,30.02,SE,142,0.0,1.0,95,0.00,,,0.21,0.0,meteohub,2013-09-05 02:32:00,
2013-09-04 22:37:00,77.7,75.9,30.02,SE,142,0.0,2.0,94,0.00,,,0.21,0.0,meteohub,2013-09-05 02:37:00,
2013-09-04 22:42:00,77.5,75.7,30.02,SSW,199,0.0,2.0,94,0.00,,,0.21,0.0,meteohub,2013-09-05 02:42:00,
2013-09-04 22:47:00,77.5,75.4,30.02,SSW,199,0.0,6.0,93,0.00,,,0.21,0.0,meteohub,2013-09-05 02:47:00,
2013-09-04 22:52:00,77.5,75.4,30.02,SSW,199,0.0,6.0,93,0.00,,,0.21,0.0,meteohub,2013-09-05 02:52:00,
2013-09-04 22:57:00,77.4,74.8,30.02,SSE,168,0.0,6.0,92,0.00,,,0.21,0.0,meteohub,2013-09-05 02:57:00,
2013-09-04 23:02:00,77.4,74.8,30.02,SSE,168,0.0,3.0,92,0.00,,,0.21,0.0,meteohub,2013-09-05 03:02:00,
2013-09-04 23:07:00,77.2,74.7,30.03,SSE,168,0.0,3.0,92,0.00,,,0.21,0.0,meteohub,2013-09-05 03:07:00,
2013-09-04 23:12:00,77.2,74.7,30.02,SSE,168,0.0,1.0,92,0.00,,,0.21,0.0,meteohub,2013-09-05 03:12:00,
2013-09-04 23:17:00,77.0,74.5,30.02,SSE,168,0.0,1.0,92,0.00,,,0.21,0.0,meteohub,2013-09-05 03:17:00,
2013-09-04 23:22:00,76.8,74.3,30.02,SSE,168,0.0,1.0,92,0.00,,,0.21,0.0,meteohub,2013-09-05 03:22:00,
2013-09-04 23:27:00,76.6,73.8,30.02,SSE,168,0.0,1.0,91,0.00,,,0.21,0.0,meteohub,2013-09-05 03:27:00,
2013-09-04 23:32:00,76.6,74.1,30.03,SSE,168,0.0,1.0,92,0.00,,,0.21,0.0,meteohub,2013-09-05 03:32:00,
2013-09-04 23:37:00,76.6,73.8,30.03,SSE,168,0.0,1.0,91,0.00,,,0.21,0.0,meteohub,2013-09-05 03:37:00,
2013-09-04 23:42:00,76.6,73.8,30.03,SSE,168,0.0,1.0,91,0.00,,,0.21,0.0,meteohub,2013-09-05 03:42:00,
2013-09-04 23:47:00,76.6,74.1,30.03,SSE,168,0.0,1.0,92,0.00,,,0.21,0.0,meteohub,2013-09-05 03:47:00,
2013-09-04 23:52:00,76.5,73.9,30.03,SSE,168,0.0,0.0,92,0.00,,,0.21,0.0,meteohub,2013-09-05 03:52:00,
2013-09-04 23:57:00,76.3,73.8,30.03,SSE,168,0.0,0.0,92,0.00,,,0.21,0.0,meteohub,2013-09-05 03:57:00,